Time;durP1;ratioP1;P1;durP2;ratioP2;P2;SDS_P1;SDS_P2;PMS_P1;PMS_P2;Temp;Humidity;BMP_temperature;BMP_pressure;BME280_temperature;BME280_humidity;BME280_pressure;Samples;Min_cycle;Max_cycle;Signal;HPM_P1;HPM_P2
2023/09/29 00:01:35;;;;;;;11.15;5.35;;;18.20;99.90;;;;;;6152153;23;20447;-74
2023/09/29 00:04:05;;;;;;;13.15;4.97;;;18.20;99.90;;;;;;6125900;23;20005;-74
2023/09/29 00:06:32;;;;;;;9.50;4.43;;;18.20;99.90;;;;;;6150428;23;20001;-74
2023/09/29 00:08:59;;;;;;;12.55;5.15;;;18.20;99.90;;;;;;6123855;23;20423;-74
2023/09/29 00:11:25;;;;;;;12.57;4.28;;;18.20;99.90;;;;;;6123364;23;20009;-74
2023/09/29 00:13:51;;;;;;;12.00;4.85;;;18.20;99.90;;;;;;6123491;23;20375;-74
2023/09/29 00:16:16;;;;;;;14.30;4.70;;;18.20;99.90;;;;;;6151526;23;20053;-74
2023/09/29 00:18:42;;;;;;;14.70;4.97;;;18.10;99.90;;;;;;6125625;23;20065;-74
2023/09/29 00:21:08;;;;;;;16.02;5.93;;;18.10;99.90;;;;;;6125344;23;20008;-74
2023/09/29 00:23:35;;;;;;;14.75;5.82;;;18.20;99.90;;;;;;6126031;23;20001;-74
2023/09/29 00:26:00;;;;;;;16.67;5.78;;;18.20;99.90;;;;;;6151707;23;20009;-74
2023/09/29 00:28:27;;;;;;;10.65;5.07;;;18.20;99.90;;;;;;6151516;23;20300;-74
2023/09/29 00:30:53;;;;;;;16.63;5.90;;;18.20;99.90;;;;;;6151182;23;19998;-74
2023/09/29 00:33:18;;;;;;;13.55;5.38;;;18.20;99.90;;;;;;6151952;23;20304;-74
2023/09/29 00:35:44;;;;;;;15.10;5.80;;;18.20;99.90;;;;;;6151402;23;20005;-74
2023/09/29 00:38:10;;;;;;;14.20;5.40;;;18.20;99.90;;;;;;6151779;23;20059;-74
2023/09/29 00:40:35;;;;;;;12.68;5.63;;;18.20;99.90;;;;;;6125277;23;20005;-74
2023/09/29 00:43:03;;;;;;;14.10;5.30;;;18.20;99.90;;;;;;6124958;23;20009;-74
2023/09/29 00:45:29;;;;;;;13.52;5.40;;;18.20;99.90;;;;;;6151670;23;20013;-74
2023/09/29 00:47:58;;;;;;;17.67;5.60;;;18.30;99.90;;;;;;6125254;23;20424;-74
2023/09/29 00:50:29;;;;;;;10.20;5.13;;;18.20;99.90;;;;;;6151511;23;20005;-74
2023/09/29 00:52:58;;;;;;;12.60;5.28;;;18.30;99.90;;;;;;6151290;23;20006;-74
2023/09/29 00:55:27;;;;;;;15.57;5.90;;;18.20;99.90;;;;;;6125206;23;20009;-74
2023/09/29 00:57:56;;;;;;;13.18;5.00;;;18.30;99.90;;;;;;6150653;23;20012;-74
2023/09/29 01:00:29;;;;;;;13.00;5.47;;;18.30;99.90;;;;;;6151563;23;20080;-74
2023/09/29 01:02:59;;;;;;;11.75;5.20;;;18.20;99.90;;;;;;6125195;23;20009;-74
2023/09/29 01:05:25;;;;;;;13.60;5.75;;;18.20;99.90;;;;;;6151401;23;20016;-74
2023/09/29 01:07:51;;;;;;;9.23;4.45;;;18.20;99.90;;;;;;6151147;23;20009;-74
2023/09/29 01:10:17;;;;;;;10.88;5.72;;;18.20;99.90;;;;;;6151362;23;20001;-74
2023/09/29 01:12:44;;;;;;;13.68;6.38;;;18.20;99.90;;;;;;6150856;23;20005;-74
2023/09/29 01:15:13;;;;;;;10.25;5.18;;;18.20;99.90;;;;;;6151218;23;20480;-74
2023/09/29 01:17:43;;;;;;;13.88;6.15;;;18.20;99.90;;;;;;6151231;23;20006;-74
2023/09/29 01:20:15;;;;;;;11.95;5.70;;;18.20;99.90;;;;;;6151154;23;20029;-74
2023/09/29 01:22:46;;;;;;;13.48;5.32;;;18.30;99.90;;;;;;6151214;23;20001;-74
2023/09/29 01:25:16;;;;;;;10.25;4.88;;;18.20;99.90;;;;;;6151351;23;20013;-74
2023/09/29 01:27:42;;;;;;;11.65;5.40;;;18.30;99.90;;;;;;6150735;23;20002;-74
2023/09/29 01:30:09;;;;;;;11.45;5.00;;;18.30;99.90;;;;;;6151228;23;20052;-74
2023/09/29 01:32:35;;;;;;;9.45;4.80;;;18.30;99.90;;;;;;6151262;23;19994;-74
2023/09/29 01:35:01;;;;;;;12.43;5.40;;;18.30;99.90;;;;;;6151857;23;20012;-74
2023/09/29 01:37:28;;;;;;;10.13;5.30;;;18.30;99.90;;;;;;6151548;23;20006;-74
2023/09/29 01:39:53;;;;;;;9.13;4.72;;;18.30;99.90;;;;;;6150962;23;20104;-74
2023/09/29 01:42:19;;;;;;;10.48;4.47;;;18.40;99.90;;;;;;6150713;23;20025;-74
2023/09/29 01:44:46;;;;;;;14.43;5.05;;;18.30;99.90;;;;;;6151045;23;20009;-74
2023/09/29 01:47:11;;;;;;;15.90;5.75;;;18.30;99.90;;;;;;6151141;23;20060;-74
2023/09/29 01:49:37;;;;;;;9.10;4.43;;;18.30;99.90;;;;;;6151545;23;20002;-74
2023/09/29 01:52:02;;;;;;;11.30;5.50;;;18.30;99.90;;;;;;6124972;23;20002;-74
2023/09/29 01:54:28;;;;;;;9.32;4.97;;;18.40;99.90;;;;;;6151860;23;20005;-74
2023/09/29 01:56:54;;;;;;;16.08;4.35;;;18.40;99.90;;;;;;6150381;23;20425;-74
2023/09/29 01:59:19;;;;;;;8.90;4.32;;;18.40;99.90;;;;;;6151293;23;19997;-74
2023/09/29 02:01:45;;;;;;;11.68;4.55;;;18.30;99.90;;;;;;6124784;23;20427;-74
2023/09/29 02:04:11;;;;;;;11.25;4.00;;;18.40;99.90;;;;;;6151346;23;20044;-74
2023/09/29 02:06:37;;;;;;;11.75;5.00;;;18.40;99.90;;;;;;6151084;23;20001;-74
2023/09/29 02:09:11;;;;;;;9.15;4.38;;;18.50;99.90;;;;;;6151081;23;19997;-75
2023/09/29 02:11:41;;;;;;;10.02;4.82;;;18.40;99.90;;;;;;6150661;23;20006;-74
2023/09/29 02:14:06;;;;;;;8.27;3.90;;;18.50;99.90;;;;;;6151082;23;20423;-74
2023/09/29 02:16:35;;;;;;;8.95;4.25;;;18.50;99.90;;;;;;6151249;23;19997;-74
2023/09/29 02:19:02;;;;;;;10.23;4.88;;;18.60;99.90;;;;;;6151308;23;19998;-74
2023/09/29 02:21:28;;;;;;;11.77;4.63;;;18.50;99.90;;;;;;6151455;23;20076;-74
2023/09/29 02:23:55;;;;;;;12.77;5.47;;;18.50;99.90;;;;;;6150275;23;20084;-74
2023/09/29 02:26:22;;;;;;;8.52;4.40;;;18.50;99.90;;;;;;6151132;23;20428;-74
2023/09/29 02:28:48;;;;;;;11.93;5.47;;;18.50;99.90;;;;;;6151706;23;20005;-74
2023/09/29 02:31:14;;;;;;;9.90;4.70;;;18.50;99.90;;;;;;6152884;23;20005;-74
2023/09/29 02:33:41;;;;;;;9.70;5.32;;;18.60;99.90;;;;;;6152750;23;20068;-74
2023/09/29 02:36:07;;;;;;;9.50;5.05;;;18.60;99.90;;;;;;6152115;23;20033;-74
2023/09/29 02:38:33;;;;;;;8.38;5.47;;;18.60;99.90;;;;;;6151045;23;20011;-74
2023/09/29 02:41:01;;;;;;;6.45;5.07;;;18.60;99.90;;;;;;6149878;23;20084;-74
2023/09/29 02:43:31;;;;;;;11.40;5.55;;;18.60;99.90;;;;;;6150575;23;20088;-74
2023/09/29 02:45:57;;;;;;;7.70;4.63;;;18.60;99.90;;;;;;6149870;23;20002;-74
2023/09/29 02:48:23;;;;;;;8.48;5.07;;;18.60;99.90;;;;;;6150379;23;20002;-74
2023/09/29 02:50:49;;;;;;;8.25;4.53;;;18.60;99.90;;;;;;6150125;23;20087;-74
2023/09/29 02:53:15;;;;;;;8.25;4.75;;;18.60;99.90;;;;;;6150380;23;19998;-74
2023/09/29 02:55:41;;;;;;;9.77;5.45;;;18.60;99.90;;;;;;6126381;23;20005;-74
2023/09/29 02:58:07;;;;;;;10.18;5.22;;;18.50;99.90;;;;;;6152510;23;20080;-74
2023/09/29 03:00:34;;;;;;;7.53;4.00;;;18.50;99.90;;;;;;6152972;23;20001;-74
2023/09/29 03:03:00;;;;;;;8.13;4.63;;;18.50;99.90;;;;;;6152374;23;20033;-75
2023/09/29 03:05:26;;;;;;;5.45;4.10;;;18.50;99.90;;;;;;6152442;23;20080;-74
2023/09/29 03:07:51;;;;;;;6.95;3.90;;;18.40;99.90;;;;;;6151704;23;20103;-74
2023/09/29 03:10:17;;;;;;;8.13;4.60;;;18.40;99.90;;;;;;6152561;23;20001;-74
2023/09/29 03:12:46;;;;;;;8.23;4.22;;;18.40;99.90;;;;;;6152524;23;20084;-74
2023/09/29 03:15:15;;;;;;;7.35;4.03;;;18.40;99.90;;;;;;6152436;23;20005;-74
2023/09/29 03:17:42;;;;;;;7.68;4.38;;;18.40;99.90;;;;;;6152406;23;20073;-74
2023/09/29 03:20:10;;;;;;;6.38;3.85;;;18.40;99.90;;;;;;6152482;23;20006;-74
2023/09/29 03:22:37;;;;;;;6.68;4.57;;;18.40;99.90;;;;;;6152123;23;20012;-74
2023/09/29 03:25:03;;;;;;;6.88;4.00;;;18.50;99.90;;;;;;6152124;23;20002;-74
2023/09/29 03:27:29;;;;;;;6.32;4.53;;;18.50;99.90;;;;;;6152833;23;20392;-74
2023/09/29 03:29:55;;;;;;;6.82;3.92;;;18.50;99.90;;;;;;6152057;23;20002;-74
2023/09/29 03:32:20;;;;;;;5.18;3.92;;;18.50;99.90;;;;;;6152462;23;20052;-74
2023/09/29 03:34:48;;;;;;;10.30;4.15;;;18.60;99.90;;;;;;6152249;23;20017;-74
2023/09/29 03:37:14;;;;;;;7.55;4.45;;;18.60;99.90;;;;;;6151573;23;20040;-74
2023/09/29 03:39:39;;;;;;;7.10;3.47;;;18.60;99.90;;;;;;6151798;23;20005;-74
2023/09/29 03:42:05;;;;;;;13.10;4.05;;;18.60;99.90;;;;;;6152173;23;20068;-74
2023/09/29 03:44:32;;;;;;;7.07;4.10;;;18.60;99.90;;;;;;6152345;23;20094;-74
2023/09/29 03:46:57;;;;;;;5.32;4.00;;;18.60;99.90;;;;;;6151836;23;20459;-74
2023/09/29 03:49:23;;;;;;;6.15;3.78;;;18.60;99.90;;;;;;6152335;23;20064;-74
2023/09/29 03:51:49;;;;;;;6.43;3.70;;;18.50;99.90;;;;;;6151533;23;20002;-74
2023/09/29 03:54:14;;;;;;;10.68;4.47;;;18.60;99.90;;;;;;6152034;23;20029;-74
2023/09/29 03:56:40;;;;;;;7.57;3.85;;;18.60;99.90;;;;;;6151796;23;20009;-74
2023/09/29 03:59:05;;;;;;;9.20;3.67;;;18.50;99.90;;;;;;6151910;23;19994;-74
2023/09/29 04:01:32;;;;;;;6.53;3.17;;;18.50;99.90;;;;;;6126273;23;20001;-74
2023/09/29 04:03:57;;;;;;;8.82;3.65;;;18.50;99.90;;;;;;6151721;23;20001;-74
2023/09/29 04:06:23;;;;;;;4.95;3.40;;;18.50;99.90;;;;;;6125161;23;19998;-74
2023/09/29 04:08:49;;;;;;;5.55;3.22;;;18.50;99.90;;;;;;6151880;23;20033;-75
2023/09/29 04:11:15;;;;;;;4.43;2.55;;;18.50;99.90;;;;;;6151985;23;20004;-74
2023/09/29 04:13:42;;;;;;;7.85;2.88;;;18.60;99.90;;;;;;6151986;23;20344;-74
2023/09/29 04:16:08;;;;;;;5.93;3.25;;;18.60;99.90;;;;;;6151893;23;20002;-74
2023/09/29 04:18:34;;;;;;;7.72;3.95;;;18.60;99.90;;;;;;6152195;23;20017;-74
2023/09/29 04:21:02;;;;;;;4.40;3.35;;;18.60;99.90;;;;;;6151271;23;20008;-75
2023/09/29 04:23:28;;;;;;;6.88;3.30;;;18.60;99.90;;;;;;6152231;23;20085;-74
2023/09/29 04:25:54;;;;;;;6.35;3.40;;;18.60;99.90;;;;;;6150894;23;20045;-74
2023/09/29 04:28:19;;;;;;;6.00;2.83;;;18.50;99.90;;;;;;6151958;23;20363;-74
2023/09/29 04:30:45;;;;;;;6.80;3.20;;;18.60;99.90;;;;;;6151408;23;20002;-74
2023/09/29 04:33:11;;;;;;;7.50;2.92;;;18.60;99.90;;;;;;6151514;23;20068;-74
2023/09/29 04:35:36;;;;;;;8.02;3.85;;;18.60;99.90;;;;;;6151170;23;20063;-74
2023/09/29 04:38:02;;;;;;;4.95;2.70;;;18.60;99.90;;;;;;6151194;23;20012;-74
2023/09/29 04:40:28;;;;;;;5.50;3.13;;;18.60;99.90;;;;;;6151716;23;20005;-74
2023/09/29 04:42:54;;;;;;;5.57;2.78;;;18.60;99.90;;;;;;6151212;23;20009;-74
2023/09/29 04:45:19;;;;;;;4.68;3.92;;;18.60;99.90;;;;;;6151506;23;20016;-74
2023/09/29 04:47:45;;;;;;;4.78;2.45;;;18.60;99.90;;;;;;6151336;23;20009;-74
2023/09/29 04:50:11;;;;;;;6.05;2.90;;;18.60;99.90;;;;;;6151088;23;20018;-74
2023/09/29 04:52:37;;;;;;;4.53;2.33;;;18.60;99.90;;;;;;6151120;23;20438;-74
2023/09/29 04:55:02;;;;;;;6.78;2.58;;;18.60;99.90;;;;;;6151176;23;20059;-74
2023/09/29 04:57:28;;;;;;;4.90;3.25;;;18.60;99.90;;;;;;6151702;23;20029;-74
2023/09/29 04:59:54;;;;;;;5.85;2.60;;;18.70;99.90;;;;;;6151068;23;20080;-74
2023/09/29 05:02:19;;;;;;;4.93;2.85;;;18.70;99.90;;;;;;6151384;23;20006;-74
2023/09/29 05:04:45;;;;;;;6.63;3.00;;;18.70;99.90;;;;;;6150896;23;20016;-74
2023/09/29 05:07:12;;;;;;;4.78;3.00;;;18.80;99.90;;;;;;6151211;23;20025;-74
2023/09/29 05:09:37;;;;;;;3.20;2.13;;;18.80;99.90;;;;;;6151490;23;20033;-74
2023/09/29 05:12:04;;;;;;;7.35;3.03;;;18.90;99.90;;;;;;6124722;23;20005;-74
2023/09/29 05:14:30;;;;;;;9.02;2.50;;;18.90;99.90;;;;;;6151639;23;20010;-74
2023/09/29 05:16:55;;;;;;;4.28;2.83;;;18.90;99.90;;;;;;6150881;23;20005;-74
2023/09/29 05:19:21;;;;;;;3.80;1.98;;;19.00;99.90;;;;;;6150977;23;20210;-74
2023/09/29 05:21:46;;;;;;;4.28;2.53;;;18.90;99.90;;;;;;6151069;23;20064;-74
2023/09/29 05:24:12;;;;;;;5.47;2.85;;;19.00;99.90;;;;;;6150936;23;20085;-74
2023/09/29 05:26:38;;;;;;;5.65;2.35;;;19.00;99.90;;;;;;6151043;23;20074;-74
2023/09/29 05:29:04;;;;;;;5.28;2.10;;;19.00;99.90;;;;;;6124791;23;20010;-74
2023/09/29 05:31:30;;;;;;;5.78;3.03;;;19.00;99.90;;;;;;6151274;23;19998;-74
2023/09/29 05:33:56;;;;;;;6.88;3.03;;;19.10;99.90;;;;;;6150583;23;20004;-74
2023/09/29 05:36:21;;;;;;;6.50;2.78;;;19.10;99.90;;;;;;6151290;23;19998;-74
2023/09/29 05:38:47;;;;;;;4.18;1.90;;;19.10;99.90;;;;;;6151216;23;20125;-74
2023/09/29 05:41:13;;;;;;;4.65;2.45;;;19.10;99.90;;;;;;6150955;23;20001;-74
2023/09/29 05:43:38;;;;;;;3.60;2.03;;;19.10;99.90;;;;;;6151092;23;20367;-74
2023/09/29 05:46:04;;;;;;;5.40;3.00;;;19.20;99.90;;;;;;6150940;23;20076;-74
2023/09/29 05:48:29;;;;;;;4.20;2.40;;;19.20;99.90;;;;;;6151208;23;20036;-74
2023/09/29 05:50:55;;;;;;;3.58;2.45;;;19.20;99.90;;;;;;6150793;23;19997;-74
2023/09/29 05:53:21;;;;;;;6.10;2.58;;;19.30;99.90;;;;;;6151338;23;20218;-74
2023/09/29 05:55:46;;;;;;;3.85;2.13;;;19.20;99.90;;;;;;6150803;23;20005;-74
2023/09/29 05:58:12;;;;;;;3.17;2.33;;;19.30;99.90;;;;;;6125035;23;20119;-74
2023/09/29 06:00:37;;;;;;;3.80;2.42;;;19.40;99.90;;;;;;6151249;23;20002;-74
2023/09/29 06:03:03;;;;;;;4.00;2.25;;;19.40;99.90;;;;;;6150733;23;20258;-74
2023/09/29 06:05:29;;;;;;;4.00;3.13;;;19.40;99.90;;;;;;6153411;23;20084;-74
2023/09/29 06:07:55;;;;;;;3.38;3.00;;;19.40;99.90;;;;;;6152687;23;20032;-74
2023/09/29 06:10:21;;;;;;;3.22;2.40;;;19.40;99.90;;;;;;6152624;23;20054;-74
2023/09/29 06:12:47;;;;;;;6.22;3.42;;;19.40;99.90;;;;;;6150740;23;20001;-74
2023/09/29 06:15:12;;;;;;;5.20;2.33;;;19.50;99.90;;;;;;6149873;23;20009;-74
2023/09/29 06:17:38;;;;;;;4.72;2.25;;;19.50;99.90;;;;;;6152094;23;20002;-75
2023/09/29 06:20:05;;;;;;;4.20;2.25;;;19.50;99.90;;;;;;6152100;23;20073;-74
2023/09/29 06:22:30;;;;;;;6.50;3.30;;;19.60;99.90;;;;;;6153097;23;20108;-74
2023/09/29 06:24:56;;;;;;;3.72;2.40;;;19.60;99.90;;;;;;6152522;23;20337;-74
2023/09/29 06:27:21;;;;;;;6.60;2.95;;;19.70;99.90;;;;;;6152776;23;20467;-75
2023/09/29 06:29:50;;;;;;;3.70;2.78;;;19.70;99.90;;;;;;6152726;23;20002;-74
2023/09/29 06:32:16;;;;;;;4.78;3.30;;;19.70;99.90;;;;;;6125896;23;20447;-74
2023/09/29 06:34:41;;;;;;;3.88;3.17;;;19.70;99.90;;;;;;6126773;23;20009;-74
2023/09/29 06:37:08;;;;;;;3.45;2.88;;;19.80;99.90;;;;;;6152585;23;20489;-74
2023/09/29 06:39:35;;;;;;;6.32;2.95;;;19.80;99.90;;;;;;6126732;23;20005;-74
2023/09/29 06:42:01;;;;;;;4.68;2.83;;;19.80;99.90;;;;;;6152527;23;20060;-74
2023/09/29 06:44:27;;;;;;;3.83;2.63;;;19.90;99.90;;;;;;6152751;23;20026;-74
2023/09/29 06:46:52;;;;;;;3.10;2.35;;;19.80;99.90;;;;;;6151708;23;20451;-74
2023/09/29 06:49:18;;;;;;;2.95;2.50;;;19.80;99.90;;;;;;6152596;23;19997;-74
2023/09/29 06:51:43;;;;;;;5.55;2.75;;;19.80;99.90;;;;;;6152335;23;20067;-74
2023/09/29 06:54:10;;;;;;;5.45;2.58;;;19.80;99.90;;;;;;6126556;23;20072;-74
2023/09/29 06:56:36;;;;;;;6.05;3.10;;;19.80;99.90;;;;;;6126551;23;20008;-74
2023/09/29 06:59:02;;;;;;;3.65;2.58;;;19.80;99.90;;;;;;6152122;23;20368;-74
2023/09/29 07:01:27;;;;;;;6.82;2.92;;;19.90;99.90;;;;;;6126117;23;20009;-75
2023/09/29 07:03:54;;;;;;;8.02;3.28;;;19.90;99.90;;;;;;6152320;23;20008;-74
2023/09/29 07:06:23;;;;;;;6.57;2.63;;;19.90;99.90;;;;;;6126087;23;20010;-75
2023/09/29 07:08:49;;;;;;;4.28;2.90;;;19.90;99.90;;;;;;6152326;23;20002;-74
2023/09/29 07:11:15;;;;;;;8.70;3.03;;;20.00;99.90;;;;;;6152375;23;20028;-74
2023/09/29 07:13:40;;;;;;;4.30;2.40;;;20.00;99.90;;;;;;6126089;23;20002;-74
2023/09/29 07:16:06;;;;;;;3.53;2.67;;;20.10;99.90;;;;;;6151128;23;20089;-74
2023/09/29 07:18:31;;;;;;;3.42;2.72;;;20.10;99.90;;;;;;6152596;23;20002;-75
2023/09/29 07:20:57;;;;;;;5.22;3.00;;;20.10;99.90;;;;;;6152152;23;20001;-75
2023/09/29 07:23:23;;;;;;;7.25;2.72;;;20.20;99.90;;;;;;6152246;23;20001;-75
2023/09/29 07:25:52;;;;;;;5.00;2.50;;;20.30;99.90;;;;;;6151591;23;20048;-74
2023/09/29 07:28:18;;;;;;;5.43;3.13;;;20.30;99.90;;;;;;6152150;23;20001;-74
2023/09/29 07:30:47;;;;;;;5.45;2.70;;;20.40;99.90;;;;;;6152110;23;20342;-74
2023/09/29 07:33:13;;;;;;;4.82;3.15;;;20.50;99.90;;;;;;6152036;23;20008;-74
2023/09/29 07:35:40;;;;;;;4.30;3.40;;;20.50;99.90;;;;;;6151720;23;20006;-73
2023/09/29 07:38:06;;;;;;;3.67;2.55;;;20.60;99.90;;;;;;6152053;23;20005;-74
2023/09/29 07:40:34;;;;;;;4.95;2.80;;;20.60;99.90;;;;;;6152049;23;20009;-74
2023/09/29 07:43:00;;;;;;;7.03;3.25;;;20.60;99.90;;;;;;6151611;23;20052;-75
2023/09/29 07:45:26;;;;;;;3.30;2.63;;;20.70;99.90;;;;;;6145377;23;20017;-74
2023/09/29 07:47:52;;;;;;;6.70;3.08;;;20.70;99.90;;;;;;6151584;23;20005;-74
2023/09/29 07:50:19;;;;;;;3.20;2.42;;;20.70;99.90;;;;;;6152188;23;20008;-74
2023/09/29 07:52:44;;;;;;;5.10;2.92;;;20.70;99.90;;;;;;6151904;23;20431;-74
2023/09/29 07:55:11;;;;;;;6.65;2.60;;;20.70;99.90;;;;;;6150191;23;20005;-74
2023/09/29 07:57:36;;;;;;;3.00;2.25;;;20.80;99.90;;;;;;6151856;23;20084;-75
2023/09/29 08:00:05;;;;;;;8.13;3.17;;;20.80;99.90;;;;;;6149898;23;20037;-75
2023/09/29 08:02:31;;;;;;;4.15;2.17;;;20.90;99.90;;;;;;6152199;23;20009;-74
2023/09/29 08:04:57;;;;;;;5.47;2.25;;;21.00;99.90;;;;;;6151396;23;20005;-75
2023/09/29 08:07:23;;;;;;;8.02;2.72;;;21.10;99.90;;;;;;6149794;23;20072;-74
2023/09/29 08:09:50;;;;;;;7.10;2.72;;;21.10;99.90;;;;;;6146446;23;20033;-74
2023/09/29 08:12:17;;;;;;;5.18;2.65;;;21.20;99.90;;;;;;6146301;23;20064;-74
2023/09/29 08:14:43;;;;;;;5.07;2.03;;;21.30;99.90;;;;;;6148401;23;20005;-74
2023/09/29 08:17:09;;;;;;;3.63;2.30;;;21.30;99.90;;;;;;6148690;23;20048;-74
2023/09/29 08:19:35;;;;;;;3.65;1.92;;;21.40;99.90;;;;;;6148730;23;20037;-75
2023/09/29 08:22:01;;;;;;;4.30;2.17;;;21.40;99.90;;;;;;6151174;23;20008;-75
2023/09/29 08:24:26;;;;;;;3.70;2.08;;;21.40;99.90;;;;;;6152140;23;20009;-75
2023/09/29 08:26:52;;;;;;;3.55;2.03;;;21.40;99.90;;;;;;6150839;23;20002;-74
2023/09/29 08:29:18;;;;;;;4.60;1.95;;;21.50;99.90;;;;;;6151547;23;20005;-75
2023/09/29 08:31:44;;;;;;;3.42;1.98;;;21.60;99.90;;;;;;6150099;23;19998;-74
2023/09/29 08:34:09;;;;;;;5.68;1.95;;;21.70;99.90;;;;;;6151416;23;20011;-75
2023/09/29 08:36:35;;;;;;;5.60;2.10;;;21.80;99.90;;;;;;6151896;23;19998;-74
2023/09/29 08:39:01;;;;;;;2.97;1.55;;;21.90;99.90;;;;;;6151434;23;20077;-75
2023/09/29 08:41:28;;;;;;;5.30;1.98;;;21.90;99.90;;;;;;6150525;23;20005;-75
2023/09/29 08:43:55;;;;;;;3.92;1.92;;;22.00;99.90;;;;;;6150703;23;20016;-74
2023/09/29 08:46:21;;;;;;;4.32;2.00;;;22.10;99.90;;;;;;6151373;23;20061;-75
2023/09/29 08:48:47;;;;;;;3.53;1.98;;;22.20;99.90;;;;;;6151183;23;20025;-75
2023/09/29 08:51:15;;;;;;;3.20;1.83;;;22.30;99.90;;;;;;6125370;23;20012;-75
2023/09/29 08:53:44;;;;;;;2.97;1.75;;;22.40;99.90;;;;;;6151043;23;19997;-74
2023/09/29 08:56:16;;;;;;;3.40;2.10;;;22.40;99.90;;;;;;6124871;23;20485;-75
2023/09/29 08:58:42;;;;;;;4.22;1.92;;;22.50;99.90;;;;;;6150836;23;20012;-75
2023/09/29 09:01:08;;;;;;;2.85;1.70;;;22.50;99.90;;;;;;6125301;23;20012;-75
2023/09/29 09:03:34;;;;;;;2.97;2.03;;;22.60;99.90;;;;;;6151175;23;20005;-75
2023/09/29 09:06:01;;;;;;;6.38;2.40;;;22.70;99.90;;;;;;6151333;23;20012;-75
2023/09/29 09:08:27;;;;;;;5.20;2.35;;;22.80;99.90;;;;;;6151676;23;20011;-75
2023/09/29 09:11:00;;;;;;;10.77;2.10;;;22.90;99.90;;;;;;6124568;23;20029;-75
2023/09/29 09:13:26;;;;;;;5.38;1.80;;;22.80;99.90;;;;;;6151244;23;20498;-75
2023/09/29 09:15:55;;;;;;;6.07;2.55;;;22.80;99.90;;;;;;6151023;23;20005;-74
2023/09/29 09:18:22;;;;;;;7.28;2.85;;;22.80;99.90;;;;;;6150982;23;20490;-74
2023/09/29 09:20:52;;;;;;;4.88;1.80;;;22.70;99.90;;;;;;6151304;23;20006;-75
2023/09/29 09:23:18;;;;;;;5.40;2.40;;;22.70;99.90;;;;;;6124765;23;20002;-75
2023/09/29 09:25:43;;;;;;;4.05;1.80;;;22.80;99.90;;;;;;6150609;23;20424;-75
2023/09/29 09:28:17;;;;;;;5.93;2.30;;;22.90;99.90;;;;;;6124910;23;20345;-75
2023/09/29 09:30:44;;;;;;;4.10;2.25;;;23.00;99.90;;;;;;6151208;23;20085;-74
2023/09/29 09:33:23;;;;;;;3.97;2.30;;;23.00;99.90;;;;;;6150930;23;20059;-75
2023/09/29 09:35:51;;;;;;;9.85;2.00;;;23.00;99.90;;;;;;6151106;23;20060;-75
2023/09/29 09:38:17;;;;;;;5.50;2.25;;;23.10;99.90;;;;;;6125828;23;20037;-75
2023/09/29 09:40:49;;;;;;;3.85;2.17;;;23.10;99.90;;;;;;6126299;23;20060;-75
2023/09/29 09:43:17;;;;;;;4.75;2.50;;;23.20;99.90;;;;;;6153274;23;20419;-75
2023/09/29 09:45:48;;;;;;;4.80;1.73;;;23.30;99.90;;;;;;6152364;23;20025;-75
2023/09/29 09:48:18;;;;;;;3.80;2.25;;;23.40;99.90;;;;;;6126588;23;20458;-75
2023/09/29 09:50:45;;;;;;;4.78;2.30;;;23.50;99.90;;;;;;6126907;23;20012;-75
2023/09/29 09:53:13;;;;;;;4.93;1.95;;;23.50;99.80;;;;;;6153020;23;20069;-75
2023/09/29 09:55:41;;;;;;;6.03;2.83;;;23.40;99.70;;;;;;6126223;23;20006;-75
2023/09/29 09:58:11;;;;;;;4.10;2.05;;;23.40;99.70;;;;;;6153032;23;20037;-75
2023/09/29 10:00:40;;;;;;;5.32;3.03;;;23.40;99.60;;;;;;6153069;23;20028;-75
2023/09/29 10:03:14;;;;;;;4.88;2.83;;;23.40;99.60;;;;;;6152578;23;20089;-75
2023/09/29 10:05:41;;;;;;;4.05;2.08;;;23.50;99.60;;;;;;6152986;23;20060;-76
2023/09/29 10:08:10;;;;;;;2.88;2.13;;;23.60;99.50;;;;;;6125802;23;20012;-78
2023/09/29 10:10:41;;;;;;;4.70;2.33;;;23.70;99.30;;;;;;6153229;23;20072;-76
2023/09/29 10:13:12;;;;;;;7.28;2.38;;;23.70;99.40;;;;;;6126515;23;20002;-76
2023/09/29 10:15:38;;;;;;;7.72;2.97;;;23.70;99.10;;;;;;6153157;23;20447;-76
2023/09/29 10:18:18;;;;;;;4.35;2.25;;;23.70;99.10;;;;;;6152766;23;20005;-76
2023/09/29 10:20:46;;;;;;;4.53;2.10;;;23.70;98.90;;;;;;6152888;23;20005;-76
2023/09/29 10:23:13;;;;;;;3.42;1.70;;;23.80;98.80;;;;;;6152159;23;19998;-76
2023/09/29 10:25:41;;;;;;;5.68;2.53;;;23.70;98.90;;;;;;6152135;23;20005;-74
2023/09/29 10:28:08;;;;;;;7.85;1.98;;;23.50;98.90;;;;;;6151112;23;20064;-75
2023/09/29 10:30:34;;;;;;;3.78;2.10;;;23.50;99.10;;;;;;6126401;23;20340;-75
2023/09/29 10:33:11;;;;;;;6.07;1.80;;;23.50;99.10;;;;;;6152574;23;20065;-75
2023/09/29 10:35:45;;;;;;;6.35;1.90;;;23.50;99.20;;;;;;6126644;23;20013;-75
2023/09/29 10:38:23;;;;;;;5.90;1.90;;;23.50;99.10;;;;;;6125896;23;20010;-75
2023/09/29 10:40:50;;;;;;;3.90;1.65;;;23.50;99.10;;;;;;6152265;23;20021;-74
2023/09/29 10:43:25;;;;;;;5.15;1.85;;;23.30;99.20;;;;;;6152533;23;20001;-75
2023/09/29 10:45:51;;;;;;;4.05;1.75;;;23.20;99.60;;;;;;6152233;23;20317;-75
2023/09/29 10:48:23;;;;;;;3.60;1.60;;;23.20;99.90;;;;;;6124925;23;20033;-75
2023/09/29 10:50:50;;;;;;;4.38;2.15;;;23.20;99.90;;;;;;6124630;23;20088;-75
2023/09/29 10:53:22;;;;;;;5.03;1.80;;;23.30;99.90;;;;;;6150761;23;20009;-75
2023/09/29 10:55:58;;;;;;;4.38;1.73;;;23.30;99.90;;;;;;6125878;23;20043;-75
2023/09/29 10:58:27;;;;;;;3.83;1.92;;;23.30;99.90;;;;;;6152206;23;20001;-75
2023/09/29 11:00:53;;;;;;;4.30;2.75;;;23.30;99.90;;;;;;6152130;23;20006;-75
2023/09/29 11:03:24;;;;;;;6.72;2.17;;;23.20;99.90;;;;;;6152093;23;20052;-75
2023/09/29 11:05:51;;;;;;;4.93;2.70;;;23.20;99.90;;;;;;6151902;23;20009;-75
2023/09/29 11:08:32;;;;;;;4.25;2.67;;;23.10;99.90;;;;;;6151888;23;20543;-74
2023/09/29 11:11:00;;;;;;;3.97;2.50;;;23.10;99.90;;;;;;6151633;23;20006;-75
2023/09/29 11:13:27;;;;;;;5.70;2.28;;;23.00;99.90;;;;;;6152060;23;20100;-75
2023/09/29 11:15:53;;;;;;;2.95;2.03;;;23.00;99.90;;;;;;6151807;23;20006;-75
2023/09/29 11:18:30;;;;;;;4.07;2.20;;;23.00;99.90;;;;;;6151756;23;20435;-75
2023/09/29 11:21:01;;;;;;;4.10;2.38;;;23.00;99.90;;;;;;6151268;23;20001;-74
2023/09/29 11:23:37;;;;;;;3.58;2.20;;;23.00;99.90;;;;;;6152587;23;20002;-76
2023/09/29 11:26:09;;;;;;;3.42;2.13;;;22.90;99.90;;;;;;6151426;23;20006;-75
2023/09/29 11:28:41;;;;;;;4.68;1.88;;;22.90;99.90;;;;;;6152896;23;20077;-75
2023/09/29 11:31:12;;;;;;;2.83;1.52;;;23.00;99.90;;;;;;6151650;23;19998;-75
2023/09/29 11:33:39;;;;;;;4.50;1.88;;;23.00;99.90;;;;;;6152314;23;20076;-75
2023/09/29 11:36:15;;;;;;;4.43;2.10;;;23.10;99.90;;;;;;6150910;23;20490;-74
2023/09/29 11:38:42;;;;;;;5.03;2.40;;;23.00;99.90;;;;;;6152138;23;20048;-76
2023/09/29 11:41:08;;;;;;;2.65;2.38;;;23.00;99.90;;;;;;6124898;23;20009;-74
2023/09/29 11:43:34;;;;;;;2.88;2.15;;;23.00;99.90;;;;;;6151695;23;19994;-75
2023/09/29 11:46:00;;;;;;;3.30;2.70;;;23.00;99.90;;;;;;6125546;23;20010;-75
2023/09/29 11:48:28;;;;;;;4.07;2.60;;;23.00;99.90;;;;;;6126721;23;20072;-74
2023/09/29 11:50:54;;;;;;;4.05;1.98;;;23.20;99.90;;;;;;6150960;23;20076;-77
2023/09/29 11:53:20;;;;;;;4.18;2.50;;;23.30;99.90;;;;;;6151505;23;20036;-77
2023/09/29 11:55:46;;;;;;;4.40;2.17;;;23.30;99.90;;;;;;6151837;23;20088;-76
2023/09/29 11:58:11;;;;;;;3.00;2.28;;;23.20;99.90;;;;;;6151205;23;20006;-75
2023/09/29 12:00:39;;;;;;;3.30;2.08;;;23.10;99.90;;;;;;6151600;23;20466;-74
2023/09/29 12:03:06;;;;;;;3.28;2.38;;;23.00;99.90;;;;;;6125313;23;20443;-76
2023/09/29 12:05:32;;;;;;;4.45;2.53;;;22.90;99.90;;;;;;6151566;23;20020;-75
2023/09/29 12:07:58;;;;;;;3.75;2.30;;;22.80;99.90;;;;;;6151531;23;20420;-75
2023/09/29 12:10:23;;;;;;;3.65;2.35;;;22.80;99.90;;;;;;6125211;23;20006;-75
2023/09/29 12:12:49;;;;;;;4.03;2.53;;;22.80;99.90;;;;;;6124875;23;20029;-75
2023/09/29 12:15:17;;;;;;;3.53;2.95;;;22.90;99.90;;;;;;6125472;23;20721;-75
2023/09/29 12:17:44;;;;;;;10.98;2.97;;;22.90;99.90;;;;;;6151601;23;20009;-76
2023/09/29 12:20:13;;;;;;;2.95;2.50;;;22.90;99.90;;;;;;6150860;23;20001;-76
2023/09/29 12:22:46;;;;;;;5.00;3.13;;;22.90;99.90;;;;;;6125063;23;20427;-75
2023/09/29 12:25:15;;;;;;;6.32;3.45;;;22.80;99.90;;;;;;6124890;23;20048;-75
2023/09/29 12:27:44;;;;;;;5.82;2.53;;;22.80;99.90;;;;;;6150358;23;19997;-75
2023/09/29 12:30:12;;;;;;;3.83;2.40;;;22.70;99.90;;;;;;6151880;23;20301;-75
2023/09/29 12:32:42;;;;;;;5.90;2.42;;;22.60;99.90;;;;;;6151710;23;20005;-75
2023/09/29 12:35:14;;;;;;;4.82;1.80;;;22.50;99.90;;;;;;6150780;23;20033;-76
2023/09/29 12:37:42;;;;;;;1.98;1.00;;;22.40;99.90;;;;;;6125319;23;20005;-76
2023/09/29 12:40:09;;;;;;;1.50;0.80;;;22.30;99.90;;;;;;6151479;23;20005;-75
2023/09/29 12:42:35;;;;;;;4.50;1.30;;;22.20;99.90;;;;;;6151631;23;20016;-75
2023/09/29 12:45:02;;;;;;;2.25;0.80;;;22.20;99.90;;;;;;6150215;23;20021;-79